createdAt,value
2022-10-29T00:01:45.309Z,100724.20
2022-10-29T00:04:12.042Z,100720.73
2022-10-29T00:06:38.944Z,100716.86
2022-10-29T00:09:06.324Z,100716.20
2022-10-29T00:11:34.048Z,100713.39
2022-10-29T00:14:01.278Z,100710.98
2022-10-29T00:16:34.559Z,100710.52
2022-10-29T00:19:01.552Z,100705.14
2022-10-29T00:21:28.555Z,100701.13
2022-10-29T00:26:42.291Z,100697.52
2022-10-29T00:29:09.083Z,100694.27
2022-10-29T00:34:21.332Z,100690.35
2022-10-29T00:36:47.897Z,100693.89
2022-10-29T00:39:15.921Z,100692.39
2022-10-29T00:41:43.226Z,100691.84
2022-10-29T00:44:21.731Z,100689.93
2022-10-29T00:46:59.470Z,100689.30
2022-10-29T00:52:12.104Z,100686.45
2022-10-29T00:54:42.595Z,100685.55
2022-10-29T01:00:00.307Z,100683.25
2022-10-29T01:02:29.288Z,100679.64
2022-10-29T01:04:56.035Z,100675.29
2022-10-29T01:07:23.725Z,100674.54
2022-10-29T01:09:50.309Z,100673.96
2022-10-29T01:12:55.606Z,100669.70
2022-10-29T01:19:03.208Z,100663.98
2022-10-29T01:21:42.260Z,100665.16
2022-10-29T01:24:56.693Z,100670.88
2022-10-29T01:30:49.918Z,100674.63
2022-10-29T01:33:26.975Z,100675.10
2022-10-29T01:36:18.502Z,100673.30
2022-10-29T01:38:55.983Z,100675.91
2022-10-29T01:41:28.684Z,100677.11
2022-10-29T01:44:27.150Z,100680.17
2022-10-29T01:47:15.422Z,100680.69
2022-10-29T01:49:47.135Z,100674.89
2022-10-29T01:52:33.555Z,100670.83
2022-10-29T01:55:01.815Z,100667.88
2022-10-29T01:57:30.641Z,100665.03
2022-10-29T02:03:02.687Z,100666.92
2022-10-29T02:05:29.547Z,100664.94
2022-10-29T02:08:24.693Z,100661.05
2022-10-29T02:11:15.536Z,100657.34
2022-10-29T02:14:23.850Z,100659.02
2022-10-29T02:16:51.943Z,100658.16
2022-10-29T02:19:19.467Z,100651.11
2022-10-29T02:21:46.085Z,100647.18
2022-10-29T02:24:12.916Z,100652.91
2022-10-29T02:26:39.572Z,100643.27
2022-10-29T02:29:06.406Z,100642.04
2022-10-29T02:31:33.286Z,100640.19
2022-10-29T02:33:59.896Z,100635.89
2022-10-29T02:36:26.758Z,100630.88
2022-10-29T02:38:53.342Z,100621.42
2022-10-29T02:41:20.018Z,100619.72
2022-10-29T02:43:46.891Z,100613.91
2022-10-29T02:46:16.612Z,100603.95
2022-10-29T02:48:43.457Z,100605.67
2022-10-29T02:51:11.196Z,100605.91
2022-10-29T02:53:38.386Z,100605.13
2022-10-29T02:58:51.356Z,100599.50
2022-10-29T03:01:17.995Z,100600.70
2022-10-29T03:03:44.715Z,100597.09
2022-10-29T03:11:43.363Z,100594.23
2022-10-29T03:14:10.177Z,100592.92
2022-10-29T03:16:36.819Z,100591.61
2022-10-29T03:19:03.459Z,100588.52
2022-10-29T03:21:30.296Z,100587.50
2022-10-29T03:23:57.069Z,100588.94
2022-10-29T03:26:23.669Z,100579.23
2022-10-29T03:28:50.447Z,100574.77
2022-10-29T03:31:17.080Z,100572.86
2022-10-29T03:33:43.984Z,100567.21
2022-10-29T03:41:40.293Z,100560.43
2022-10-29T03:44:06.897Z,100563.71
2022-10-29T03:46:33.930Z,100563.59
2022-10-29T03:49:00.455Z,100562.34
2022-10-29T03:51:27.500Z,100561.30
2022-10-29T03:53:54.396Z,100565.95
2022-10-29T03:56:21.060Z,100566.73
2022-10-29T03:58:47.700Z,100566.44
2022-10-29T04:01:14.303Z,100570.37
2022-10-29T04:03:41.819Z,100578.94
2022-10-29T04:06:12.583Z,100580.64
2022-10-29T04:08:39.839Z,100588.79
2022-10-29T04:11:08.724Z,100584.70
2022-10-29T04:13:35.645Z,100586.52
2022-10-29T04:16:02.445Z,100583.14
2022-10-29T04:18:29.107Z,100587.21
2022-10-29T04:22:36.849Z,100580.56
2022-10-29T04:29:23.733Z,100568.38
2022-10-29T04:31:50.694Z,100561.17
2022-10-29T04:34:17.591Z,100562.23
2022-10-29T04:36:44.283Z,100559.39
2022-10-29T04:39:10.792Z,100560.29
2022-10-29T04:41:37.517Z,100556.83
2022-10-29T04:44:04.459Z,100559.52
2022-10-29T04:46:31.253Z,100562.96
2022-10-29T04:48:58.695Z,100559.70
2022-10-29T04:51:26.471Z,100555.46
2022-10-29T04:53:53.464Z,100560.54
2022-10-29T04:56:20.213Z,100560.27
2022-10-29T04:58:49.960Z,100562.99
2022-10-29T05:01:16.869Z,100563.30
2022-10-29T05:03:43.803Z,100560.73
2022-10-29T05:06:11.116Z,100559.39
2022-10-29T05:08:38.031Z,100560.50
2022-10-29T05:13:50.688Z,100563.48
2022-10-29T05:19:03.331Z,100573.00
2022-10-29T05:21:30.904Z,100574.23
2022-10-29T05:23:58.086Z,100571.58
2022-10-29T05:26:24.723Z,100580.49
2022-10-29T05:28:51.912Z,100590.15
2022-10-29T05:31:18.851Z,100591.43
2022-10-29T05:33:45.556Z,100591.84
2022-10-29T05:36:12.435Z,100603.74
2022-10-29T05:38:39.231Z,100603.89
2022-10-29T05:43:50.723Z,100603.11
2022-10-29T05:46:17.456Z,100598.45
2022-10-29T05:48:44.112Z,100592.78
2022-10-29T05:51:10.659Z,100598.68
2022-10-29T05:53:37.286Z,100598.77
2022-10-29T05:56:04.641Z,100598.81
2022-10-29T05:58:31.252Z,100593.65
2022-10-29T06:00:58.016Z,100596.34
2022-10-29T06:03:24.651Z,100597.72
2022-10-29T06:05:51.736Z,100591.38
2022-10-29T06:08:29.898Z,100586.61
2022-10-29T06:11:02.232Z,100587.41
2022-10-29T06:13:29.142Z,100584.46
2022-10-29T06:18:43.487Z,100587.86
2022-10-29T06:21:10.059Z,100590.69
2022-10-29T06:23:37.209Z,100592.91
2022-10-29T06:26:04.206Z,100587.80
2022-10-29T06:28:34.775Z,100584.34
2022-10-29T06:31:02.060Z,100583.36
2022-10-29T06:33:28.885Z,100585.93
2022-10-29T06:41:30.513Z,100602.39
2022-10-29T06:43:57.981Z,100602.80
2022-10-29T06:46:24.694Z,100607.14
2022-10-29T06:48:51.570Z,100607.14
2022-10-29T06:51:18.327Z,100602.59
2022-10-29T06:56:30.746Z,100611.38
2022-10-29T06:58:57.338Z,100622.65
2022-10-29T07:01:27.766Z,100623.33
2022-10-29T07:04:01.546Z,100626.96
2022-10-29T07:06:31.091Z,100626.39
2022-10-29T07:11:42.619Z,100627.32
2022-10-29T07:16:54.250Z,100622.08
2022-10-29T07:19:20.889Z,100620.00
2022-10-29T07:21:47.679Z,100619.97
2022-10-29T07:24:17.307Z,100613.68
2022-10-29T07:29:28.778Z,100606.35
2022-10-29T07:31:55.516Z,100607.27
2022-10-29T07:34:22.259Z,100607.50
2022-10-29T07:36:48.959Z,100603.55
2022-10-29T07:39:15.463Z,100605.80
2022-10-29T07:41:42.215Z,100611.04
2022-10-29T07:44:08.999Z,100612.11
2022-10-29T07:46:35.673Z,100617.48
2022-10-29T07:49:02.417Z,100615.67
2022-10-29T07:51:28.984Z,100622.42
2022-10-29T07:53:55.786Z,100620.24
2022-10-29T07:56:22.517Z,100615.97
2022-10-29T07:58:49.188Z,100606.73
2022-10-29T08:01:15.836Z,100606.02
2022-10-29T08:03:42.701Z,100613.79
2022-10-29T08:06:09.425Z,100611.39
2022-10-29T08:08:36.113Z,100614.88
2022-10-29T08:11:04.516Z,100607.33
2022-10-29T08:13:31.074Z,100617.02
2022-10-29T08:15:57.637Z,100618.70
2022-10-29T08:18:24.403Z,100621.70
2022-10-29T08:20:51.252Z,100614.00
2022-10-29T08:23:17.834Z,100611.64
2022-10-29T08:25:44.815Z,100599.98
2022-10-29T08:28:14.836Z,100594.02
2022-10-29T08:30:44.231Z,100601.56
2022-10-29T08:33:11.143Z,100610.65
2022-10-29T08:35:37.812Z,100616.02
2022-10-29T08:38:04.726Z,100622.69
2022-10-29T08:41:10.323Z,100628.19
2022-10-29T08:43:58.377Z,100619.90
2022-10-29T08:49:34.454Z,100620.38
2022-10-29T08:52:19.446Z,100620.95
2022-10-29T08:57:52.707Z,100613.02
2022-10-29T09:00:31.546Z,100607.98
2022-10-29T09:03:09.459Z,100609.80
2022-10-29T09:05:56.619Z,100613.41
2022-10-29T09:08:37.975Z,100619.77
2022-10-29T09:11:23.602Z,100626.89
2022-10-29T09:17:35.389Z,100633.54
2022-10-29T09:23:25.686Z,100632.30
2022-10-29T09:25:59.057Z,100630.17
2022-10-29T09:29:01.399Z,100632.06
2022-10-29T09:31:43.377Z,100633.34
2022-10-29T09:34:24.136Z,100628.17
2022-10-29T09:36:51.216Z,100617.92
2022-10-29T09:39:45.688Z,100615.00
2022-10-29T09:45:09.456Z,100618.84
2022-10-29T09:51:26.197Z,100607.08
2022-10-29T09:56:43.779Z,100617.83
2022-10-29T09:59:22.291Z,100635.32
2022-10-29T10:01:49.236Z,100639.84
2022-10-29T10:04:28.089Z,100642.91
2022-10-29T10:07:16.238Z,100642.70
2022-10-29T10:09:57.757Z,100644.00
2022-10-29T10:12:27.865Z,100652.15
2022-10-29T10:15:22.189Z,100652.41
2022-10-29T10:18:15.660Z,100648.70
2022-10-29T10:23:53.587Z,100635.14
2022-10-29T10:26:34.702Z,100621.64
2022-10-29T10:29:24.041Z,100620.38
2022-10-29T10:31:56.746Z,100627.39
2022-10-29T10:34:46.545Z,100636.45
2022-10-29T10:37:18.331Z,100647.20
2022-10-29T10:40:01.142Z,100636.41
2022-10-29T10:42:31.835Z,100639.86
2022-10-29T10:45:15.625Z,100651.13
2022-10-29T10:47:48.036Z,100668.37
2022-10-29T10:50:28.958Z,100666.52
2022-10-29T10:56:06.315Z,100665.65
2022-10-29T11:01:36.300Z,100654.94
2022-10-29T11:04:27.495Z,100656.52
2022-10-29T11:06:58.576Z,100655.85
2022-10-29T11:09:45.979Z,100653.34
2022-10-29T11:12:16.106Z,100652.89
2022-10-29T11:14:53.755Z,100651.77
2022-10-29T11:17:29.636Z,100650.69
2022-10-29T11:26:22.980Z,100642.42
2022-10-29T11:29:17.475Z,100644.58
2022-10-29T11:31:52.194Z,100647.27
2022-10-29T11:34:26.547Z,100647.80
2022-10-29T11:37:16.901Z,100646.35
2022-10-29T11:40:03.974Z,100644.72
2022-10-29T11:42:31.096Z,100658.73
2022-10-29T11:44:59.821Z,100664.16
2022-10-29T11:47:41.436Z,100664.42
2022-10-29T11:50:19.140Z,100660.89
2022-10-29T11:56:24.508Z,100668.50
2022-10-29T11:59:03.454Z,100670.96
2022-10-29T12:01:58.125Z,100666.73
2022-10-29T12:05:01.136Z,100659.21
2022-10-29T12:07:36.961Z,100650.16
2022-10-29T12:10:28.379Z,100645.52
2022-10-29T12:13:08.085Z,100653.87
2022-10-29T12:19:34.442Z,100641.77
2022-10-29T12:22:18.204Z,100647.34
2022-10-29T12:24:47.780Z,100650.41
2022-10-29T12:27:53.997Z,100647.21
2022-10-29T12:30:23.416Z,100637.86
2022-10-29T12:36:20.533Z,100643.33
2022-10-29T12:38:57.794Z,100643.46
2022-10-29T12:41:48.146Z,100644.40
2022-10-29T12:47:20.436Z,100647.80
2022-10-29T12:50:00.201Z,100646.29
2022-10-29T12:52:47.378Z,100647.34
2022-10-29T12:55:16.534Z,100653.13
2022-10-29T13:00:34.246Z,100648.39
2022-10-29T13:03:01.500Z,100650.34
2022-10-29T13:05:41.371Z,100636.84
2022-10-29T13:08:25.919Z,100639.63
2022-10-29T13:10:54.465Z,100640.46
2022-10-29T13:13:35.178Z,100649.28
2022-10-29T13:19:30.753Z,100643.73
2022-10-29T13:28:09.478Z,100644.44
2022-10-29T13:30:38.053Z,100640.09
2022-10-29T13:33:20.025Z,100643.52
2022-10-29T13:39:04.485Z,100648.98
2022-10-29T13:41:44.992Z,100652.29
2022-10-29T13:44:24.019Z,100645.67
2022-10-29T13:49:48.292Z,100651.49
2022-10-29T13:52:17.076Z,100649.71
2022-10-29T13:54:54.982Z,100648.81
2022-10-29T14:03:54.765Z,100657.41
2022-10-29T14:06:39.647Z,100667.46
2022-10-29T14:09:19.038Z,100660.55
2022-10-29T14:11:55.463Z,100663.12
2022-10-29T14:17:37.016Z,100662.56
2022-10-29T14:20:04.037Z,100659.12
2022-10-29T14:22:41.314Z,100655.05
2022-10-29T14:25:29.639Z,100649.61
2022-10-29T14:28:12.236Z,100656.99
2022-10-29T14:30:39.155Z,100655.52
2022-10-29T14:33:26.259Z,100655.20
2022-10-29T14:36:04.399Z,100660.85
2022-10-29T14:41:28.324Z,100659.28
2022-10-29T14:44:14.800Z,100657.02
2022-10-29T14:46:43.132Z,100652.45
2022-10-29T14:49:21.751Z,100659.89
2022-10-29T14:51:50.932Z,100652.55
2022-10-29T14:54:27.847Z,100656.00
2022-10-29T15:00:02.243Z,100668.44
2022-10-29T15:02:44.799Z,100664.92
2022-10-29T15:05:38.701Z,100663.92
2022-10-29T15:08:23.871Z,100669.34
2022-10-29T15:10:53.215Z,100666.06
2022-10-29T15:13:31.606Z,100662.34
2022-10-29T15:16:25.766Z,100659.15
2022-10-29T15:18:56.306Z,100663.46
2022-10-29T15:24:21.399Z,100669.20
2022-10-29T15:29:43.056Z,100676.86
2022-10-29T15:32:18.117Z,100682.98
2022-10-29T15:34:52.873Z,100685.64
2022-10-29T15:37:19.589Z,100685.46
2022-10-29T15:39:58.437Z,100684.69
2022-10-29T15:42:31.904Z,100687.21
2022-10-29T15:45:07.651Z,100689.84
2022-10-29T15:47:52.057Z,100687.21
2022-10-29T15:50:23.721Z,100687.30
2022-10-29T15:53:01.246Z,100684.52
2022-10-29T15:58:25.295Z,100676.52
2022-10-29T16:00:52.092Z,100673.48
2022-10-29T16:03:21.308Z,100667.11
2022-10-29T16:05:53.683Z,100665.47
2022-10-29T16:08:26.985Z,100671.10
2022-10-29T16:10:56.381Z,100674.45
2022-10-29T16:13:25.776Z,100677.27
2022-10-29T16:21:25.136Z,100680.70
2022-10-29T16:23:52.673Z,100683.79
2022-10-29T16:26:22.525Z,100684.45
2022-10-29T16:28:52.093Z,100680.76
2022-10-29T16:31:24.607Z,100679.86
2022-10-29T16:33:54.194Z,100681.89
2022-10-29T16:36:21.056Z,100679.77
2022-10-29T16:38:48.051Z,100681.22
2022-10-29T16:41:17.411Z,100681.34
2022-10-29T16:46:29.897Z,100681.39
2022-10-29T16:48:56.659Z,100681.19
2022-10-29T16:51:23.537Z,100680.59
2022-10-29T16:53:50.070Z,100682.52
2022-10-29T17:01:47.397Z,100678.59
2022-10-29T17:06:59.502Z,100673.59
2022-10-29T17:09:26.209Z,100672.77
2022-10-29T17:11:52.854Z,100675.44
2022-10-29T17:14:19.447Z,100674.42
2022-10-29T17:16:45.993Z,100683.92
2022-10-29T17:19:12.767Z,100687.45
2022-10-29T17:21:39.509Z,100690.11
2022-10-29T17:24:08.010Z,100695.60
2022-10-29T17:26:35.061Z,100692.60
2022-10-29T17:29:01.696Z,100691.56
2022-10-29T17:31:29.675Z,100696.50
2022-10-29T17:33:56.408Z,100694.02
2022-10-29T17:36:23.227Z,100687.89
2022-10-29T17:38:49.986Z,100685.29
2022-10-29T17:41:16.876Z,100686.41
2022-10-29T17:43:43.726Z,100688.20
2022-10-29T17:46:10.458Z,100690.44
2022-10-29T17:48:39.015Z,100692.31
2022-10-29T17:51:05.759Z,100688.14
2022-10-29T17:53:32.580Z,100686.00
2022-10-29T17:56:00.147Z,100683.25
2022-10-29T17:58:27.961Z,100677.80
2022-10-29T18:00:55.219Z,100675.91
2022-10-29T18:03:26.435Z,100676.71
2022-10-29T18:11:31.890Z,100681.25
2022-10-29T18:13:58.548Z,100688.57
2022-10-29T18:16:27.953Z,100692.04
2022-10-29T18:19:02.859Z,100695.57
2022-10-29T18:21:31.026Z,100695.59
2022-10-29T18:23:57.772Z,100690.88
2022-10-29T18:29:16.660Z,100695.62
2022-10-29T18:31:46.475Z,100694.48
2022-10-29T18:34:14.802Z,100704.67
2022-10-29T18:36:42.557Z,100704.30
2022-10-29T18:44:39.727Z,100698.51
2022-10-29T18:47:06.498Z,100700.70
2022-10-29T18:49:33.268Z,100706.61
2022-10-29T18:52:02.890Z,100707.90
2022-10-29T18:54:29.804Z,100714.10
2022-10-29T18:59:41.536Z,100717.91
2022-10-29T19:02:11.271Z,100712.86
2022-10-29T19:04:38.277Z,100715.75
2022-10-29T19:09:50.074Z,100717.81
2022-10-29T19:12:16.878Z,100722.58
2022-10-29T19:14:43.918Z,100722.44
2022-10-29T19:17:10.563Z,100725.99
2022-10-29T19:19:37.610Z,100730.91
2022-10-29T19:22:04.233Z,100736.35
2022-10-29T19:24:31.259Z,100737.27
2022-10-29T19:26:58.357Z,100741.88
2022-10-29T19:29:25.125Z,100745.47
2022-10-29T19:31:51.646Z,100742.66
2022-10-29T19:34:18.496Z,100738.11
2022-10-29T19:36:45.230Z,100734.81
2022-10-29T19:39:11.928Z,100739.38
2022-10-29T19:44:23.256Z,100737.64
2022-10-29T19:46:50.615Z,100736.21
2022-10-29T19:49:17.379Z,100736.15
2022-10-29T19:54:30.631Z,100734.52
2022-10-29T19:56:57.549Z,100739.77
2022-10-29T19:59:24.265Z,100739.74
2022-10-29T20:01:51.078Z,100736.25
2022-10-29T20:04:18.087Z,100735.90
2022-10-29T20:06:44.952Z,100726.21
2022-10-29T20:09:11.822Z,100723.23
2022-10-29T20:11:38.648Z,100720.22
2022-10-29T20:16:50.276Z,100732.56
2022-10-29T20:19:17.031Z,100718.15
2022-10-29T20:21:43.996Z,100717.19
2022-10-29T20:24:10.555Z,100721.55
2022-10-29T20:26:37.315Z,100729.55
2022-10-29T20:34:33.693Z,100737.59
2022-10-29T20:37:00.814Z,100729.21
2022-10-29T20:42:12.269Z,100724.61
2022-10-29T20:44:38.997Z,100720.13
2022-10-29T20:47:06.116Z,100730.21
2022-10-29T20:52:17.878Z,100737.52
2022-10-29T20:54:44.477Z,100731.50
2022-10-29T20:57:11.219Z,100724.63
2022-10-29T20:59:38.270Z,100725.71
2022-10-29T21:02:05.018Z,100725.66
2022-10-29T21:07:17.346Z,100728.21
2022-10-29T21:09:44.109Z,100730.42
2022-10-29T21:12:10.727Z,100732.67
2022-10-29T21:14:37.567Z,100727.09
2022-10-29T21:17:05.099Z,100721.49
2022-10-29T21:19:31.762Z,100714.54
2022-10-29T21:21:58.286Z,100708.90
2022-10-29T21:27:09.939Z,100712.25
2022-10-29T21:32:21.615Z,100711.80
2022-10-29T21:34:48.454Z,100707.55
2022-10-29T21:37:15.256Z,100703.54
2022-10-29T21:39:42.038Z,100709.03
2022-10-29T21:42:08.660Z,100704.98
2022-10-29T21:44:35.413Z,100714.65
2022-10-29T21:47:02.372Z,100724.94
2022-10-29T21:49:29.107Z,100719.30
2022-10-29T21:51:56.016Z,100718.00
2022-10-29T21:54:24.421Z,100713.94
2022-10-29T21:56:54.255Z,100713.95
2022-10-29T21:59:21.079Z,100719.40
2022-10-29T22:01:47.894Z,100723.96
2022-10-29T22:06:59.880Z,100716.46
2022-10-29T22:09:26.681Z,100714.52
2022-10-29T22:11:53.427Z,100719.43
2022-10-29T22:14:20.086Z,100714.14
2022-10-29T22:16:46.765Z,100707.50
2022-10-29T22:19:13.529Z,100707.69
2022-10-29T22:21:41.265Z,100704.41
2022-10-29T22:24:08.815Z,100709.19
2022-10-29T22:26:35.571Z,100701.04
2022-10-29T22:29:02.528Z,100690.86
2022-10-29T22:31:29.235Z,100682.15
2022-10-29T22:33:55.945Z,100678.48
2022-10-29T22:36:27.702Z,100676.66
2022-10-29T22:38:59.857Z,100679.96
2022-10-29T22:41:27.715Z,100682.76
2022-10-29T22:43:55.296Z,100686.68
2022-10-29T22:46:21.957Z,100686.08
2022-10-29T22:48:48.775Z,100680.77
2022-10-29T22:54:05.440Z,100682.73
2022-10-29T22:56:35.199Z,100682.27
2022-10-29T22:59:02.713Z,100679.02
2022-10-29T23:01:32.247Z,100677.32
2022-10-29T23:03:59.456Z,100687.73
2022-10-29T23:06:27.201Z,100692.77
2022-10-29T23:11:43.040Z,100689.21
2022-10-29T23:14:09.840Z,100696.14
2022-10-29T23:16:36.576Z,100703.57
2022-10-29T23:19:05.025Z,100711.25
2022-10-29T23:21:32.704Z,100713.93
2022-10-29T23:23:59.789Z,100713.08
2022-10-29T23:26:28.671Z,100706.96
2022-10-29T23:28:55.892Z,100701.28
2022-10-29T23:36:57.204Z,100704.41
2022-10-29T23:39:24.045Z,100700.33
2022-10-29T23:41:50.721Z,100698.14
2022-10-29T23:44:17.337Z,100691.57
2022-10-29T23:46:44.086Z,100683.67
2022-10-29T23:49:10.731Z,100685.91
2022-10-29T23:51:37.412Z,100691.36
2022-10-29T23:54:04.357Z,100689.41
2022-10-29T23:56:30.999Z,100684.15
2022-10-29T23:58:58.207Z,100687.45
